Terminal Aerodrome Forecast
Issued by NWS Blacksburg, VA

Home | Current Version | Previous Version | Text Only | Print | Product List | Glossary On
Versions: 1 2 3 4 5 6 7 8 9 10 11 12 13 14 15 16 17 18 19 20 21 22 23 24 25 26 27 28 29 30 31 32 33 34 35 36 37 38 39 40
000
FTUS41 KRNK 041946 AAA
TAFLYH
TAF AMD
KLYH 041946Z 0420/0518 23006KT P6SM VCSH SCT025 BKN050
     FM042100 24005KT 5SM -SHRA BR SCT015 OVC025
     FM042200 26006KT 6SM BR VCSH BKN035 OVC110
     FM050200 00000KT 4SM BR SCT060 OVC110
      TEMPO 0510/0512 1/4SM FG VV001
     FM051300 VRB04KT P6SM SCT012 OVC030
     FM051500 12007KT P6SM -RA OVC035=

USA.gov is the U.S. government's official web portal to all federal, state and local government web resources and services.